createdAt,value
2023-04-24T00:00:54.332Z,1.47
2023-04-24T00:03:23.210Z,1.70
2023-04-24T00:05:52.032Z,1.80
2023-04-24T00:08:20.145Z,1.42
2023-04-24T00:10:48.229Z,1.55
2023-04-24T00:13:17.535Z,2.80
2023-04-24T00:15:45.439Z,1.30
2023-04-24T00:18:13.276Z,1.38
2023-04-24T00:20:41.090Z,1.50
2023-04-24T00:23:09.018Z,1.90
2023-04-24T00:25:36.969Z,1.52
2023-04-24T00:28:04.873Z,1.50
2023-04-24T00:30:34.314Z,1.27
2023-04-24T00:33:02.162Z,1.52
2023-04-24T00:35:30.131Z,2.50
2023-04-24T00:37:57.961Z,2.00
2023-04-24T00:40:25.913Z,2.17
2023-04-24T00:42:53.908Z,2.50
2023-04-24T00:45:22.384Z,2.80
2023-04-24T00:47:54.189Z,2.40
2023-04-24T00:50:23.425Z,1.40
2023-04-24T00:52:51.716Z,1.70
2023-04-24T00:55:19.991Z,1.52
2023-04-24T00:57:48.532Z,3.08
2023-04-24T01:00:17.447Z,2.80
2023-04-24T01:02:46.394Z,2.22
2023-04-24T01:05:18.230Z,2.17
2023-04-24T01:07:49.842Z,1.60
2023-04-24T01:10:19.117Z,1.45
2023-04-24T01:12:47.463Z,2.00
2023-04-24T01:15:15.541Z,1.50
2023-04-24T01:17:43.401Z,1.25
2023-04-24T01:20:12.911Z,1.70
2023-04-24T01:22:42.383Z,1.35
2023-04-24T01:25:10.822Z,2.60
2023-04-24T01:27:38.863Z,1.98
2023-04-24T01:30:08.553Z,1.67
2023-04-24T01:32:37.281Z,1.50
2023-04-24T01:35:06.155Z,3.00
2023-04-24T01:37:34.201Z,2.60
2023-04-24T01:40:04.490Z,1.80
2023-04-24T01:42:32.823Z,1.83
2023-04-24T01:45:01.608Z,1.40
2023-04-24T01:47:30.553Z,6.80
2023-04-24T01:49:58.770Z,1.50
2023-04-24T01:52:26.826Z,2.20
2023-04-24T01:54:56.667Z,3.40
2023-04-24T01:57:26.008Z,2.40
2023-04-24T01:59:53.907Z,4.43
2023-04-24T02:02:22.449Z,5.73
2023-04-24T02:04:50.422Z,2.90
2023-04-24T02:07:18.296Z,3.10
2023-04-24T02:09:46.133Z,4.20
2023-04-24T02:12:13.988Z,3.35
2023-04-24T02:14:43.625Z,3.90
2023-04-24T02:17:14.204Z,3.75
2023-04-24T02:19:42.403Z,3.10
2023-04-24T02:22:11.547Z,3.83
2023-04-24T02:24:39.586Z,4.13
2023-04-24T02:27:07.531Z,4.85
2023-04-24T02:29:35.640Z,6.22
2023-04-24T02:32:04.922Z,3.85
2023-04-24T02:34:32.832Z,3.38
2023-04-24T02:37:00.658Z,3.25
2023-04-24T02:39:28.467Z,3.55
2023-04-24T02:41:56.312Z,2.80
2023-04-24T02:44:24.219Z,2.80
2023-04-24T02:46:52.068Z,2.83
2023-04-24T02:49:21.307Z,3.17
2023-04-24T02:51:49.122Z,3.85
2023-04-24T02:54:16.961Z,2.72
2023-04-24T02:56:44.864Z,5.07
2023-04-24T02:59:12.733Z,3.70
2023-04-24T03:01:40.814Z,3.22
2023-04-24T03:04:08.981Z,3.30
2023-04-24T03:06:38.425Z,5.30
2023-04-24T03:09:06.353Z,4.70
2023-04-24T03:11:34.273Z,5.80
2023-04-24T03:14:02.167Z,5.82
2023-04-24T03:16:30.122Z,4.03
2023-04-24T03:18:58.018Z,4.30
2023-04-24T03:21:25.967Z,3.70
2023-04-24T03:23:55.200Z,3.50
2023-04-24T03:26:23.004Z,2.20
2023-04-24T03:28:50.928Z,1.87
2023-04-24T03:31:20.100Z,1.50
2023-04-24T03:33:48.062Z,3.10
2023-04-24T03:36:16.003Z,1.30
2023-04-24T03:38:43.803Z,1.80
2023-04-24T03:41:13.089Z,1.70
2023-04-24T03:43:40.967Z,2.65
2023-04-24T03:46:10.351Z,1.20
2023-04-24T03:48:38.531Z,1.17
2023-04-24T03:51:06.490Z,2.08
2023-04-24T03:53:34.430Z,2.50
2023-04-24T03:56:02.352Z,0.80
2023-04-24T03:58:31.613Z,0.90
2023-04-24T04:00:59.814Z,1.30
2023-04-24T04:03:27.859Z,1.80
2023-04-24T04:05:56.083Z,1.85
2023-04-24T04:08:23.993Z,1.30
2023-04-24T04:10:52.346Z,1.02
2023-04-24T04:13:20.317Z,2.08
2023-04-24T04:15:49.555Z,0.88
2023-04-24T04:18:17.450Z,1.05
2023-04-24T04:20:45.341Z,1.30
2023-04-24T04:23:13.224Z,1.10
2023-04-24T04:25:41.137Z,2.10
2023-04-24T04:28:08.987Z,1.90
2023-04-24T04:30:39.197Z,1.30
2023-04-24T04:33:09.149Z,1.00
2023-04-24T04:35:37.337Z,0.80
2023-04-24T04:38:05.706Z,1.00
2023-04-24T04:40:33.825Z,1.40
2023-04-24T04:43:01.747Z,3.03
2023-04-24T04:45:29.772Z,1.10
2023-04-24T04:47:57.833Z,1.30
2023-04-24T04:50:27.588Z,1.15
2023-04-24T04:52:55.675Z,1.38
2023-04-24T04:55:23.597Z,0.60
2023-04-24T04:57:51.412Z,0.60
2023-04-24T05:00:19.567Z,1.77
2023-04-24T05:02:47.596Z,1.57
2023-04-24T05:05:16.079Z,0.60
2023-04-24T05:07:45.433Z,0.60
2023-04-24T05:10:13.407Z,0.60
2023-04-24T05:12:41.268Z,0.60
2023-04-24T05:15:09.863Z,1.38
2023-04-24T05:17:37.922Z,0.70
2023-04-24T05:20:07.195Z,3.00
2023-04-24T05:22:35.191Z,3.40
2023-04-24T05:25:04.732Z,3.58
2023-04-24T05:27:32.704Z,6.25
2023-04-24T05:30:00.548Z,3.15
2023-04-24T05:32:28.986Z,8.00
2023-04-24T05:34:56.799Z,3.97
2023-04-24T05:37:24.658Z,2.90
2023-04-24T05:39:52.528Z,4.70
2023-04-24T05:42:21.724Z,8.05
2023-04-24T05:44:50.784Z,7.65
2023-04-24T05:47:20.620Z,10.20
2023-04-24T05:49:48.479Z,10.73
2023-04-24T05:52:16.383Z,12.65
2023-04-24T05:54:44.296Z,15.50
2023-04-24T05:57:12.116Z,14.95
2023-04-24T05:59:41.495Z,20.45
2023-04-24T06:02:09.892Z,14.75
2023-04-24T06:04:38.022Z,15.90
2023-04-24T06:07:06.268Z,20.05
2023-04-24T06:09:34.244Z,15.68
2023-04-24T06:12:02.142Z,15.07
2023-04-24T06:14:30.099Z,14.30
2023-04-24T06:16:59.773Z,14.68
2023-04-24T06:19:27.701Z,14.95
2023-04-24T06:21:55.630Z,14.82
2023-04-24T06:24:23.532Z,15.77
2023-04-24T06:26:51.875Z,13.40
2023-04-24T06:29:19.744Z,14.27
2023-04-24T06:31:47.639Z,15.73
2023-04-24T06:34:16.893Z,14.93
2023-04-24T06:36:44.797Z,17.23
2023-04-24T06:39:13.279Z,17.50
2023-04-24T06:41:41.696Z,19.25
2023-04-24T06:44:09.535Z,17.13
2023-04-24T06:46:39.220Z,21.23
2023-04-24T06:49:08.313Z,23.00
2023-04-24T06:51:37.552Z,20.88
2023-04-24T06:54:05.492Z,17.60
2023-04-24T06:56:35.223Z,21.10
2023-04-24T06:59:03.156Z,20.23
2023-04-24T07:01:31.164Z,21.45
2023-04-24T07:03:59.284Z,15.73
2023-04-24T07:06:28.328Z,16.08
2023-04-24T07:08:57.975Z,16.75
2023-04-24T07:11:30.264Z,13.10
2023-04-24T07:13:58.189Z,19.15
2023-04-24T07:16:26.786Z,19.40
2023-04-24T07:18:54.671Z,19.23
2023-04-24T07:21:22.552Z,22.55
2023-04-24T07:23:50.418Z,16.47
2023-04-24T07:26:19.645Z,19.05
2023-04-24T07:28:47.507Z,19.57
2023-04-24T07:31:15.783Z,13.35
2023-04-24T07:33:43.916Z,19.63
2023-04-24T07:36:16.318Z,14.80
2023-04-24T07:38:44.264Z,11.77
2023-04-24T07:41:12.136Z,19.33
2023-04-24T07:43:41.461Z,17.70
2023-04-24T07:46:09.960Z,12.80
2023-04-24T07:48:38.119Z,11.50
2023-04-24T07:51:06.011Z,12.77
2023-04-24T07:53:33.936Z,12.63
2023-04-24T07:56:01.894Z,14.75
2023-04-24T07:58:29.897Z,13.77
2023-04-24T08:00:59.173Z,15.30
2023-04-24T08:03:27.198Z,13.70
2023-04-24T08:05:55.250Z,17.58
2023-04-24T08:08:24.138Z,15.93
2023-04-24T08:10:52.309Z,12.60
2023-04-24T08:13:20.329Z,9.20
2023-04-24T08:15:48.357Z,17.20
2023-04-24T08:18:17.753Z,11.90
2023-04-24T08:20:46.300Z,14.18
2023-04-24T08:23:14.264Z,13.93
2023-04-24T08:25:42.379Z,12.48
2023-04-24T08:28:11.772Z,13.18
2023-04-24T08:30:40.001Z,12.05
2023-04-24T08:33:08.269Z,10.48
2023-04-24T08:35:37.637Z,7.05
2023-04-24T08:38:05.560Z,10.73
2023-04-24T08:40:37.075Z,9.13
2023-04-24T08:43:05.804Z,11.60
2023-04-24T08:45:35.197Z,9.02
2023-04-24T08:48:04.572Z,9.25
2023-04-24T08:50:33.771Z,7.80
2023-04-24T08:53:05.046Z,7.50
2023-04-24T08:55:34.132Z,11.35
2023-04-24T08:58:04.245Z,8.85
2023-04-24T09:00:32.588Z,6.35
2023-04-24T09:03:04.196Z,7.72
2023-04-24T09:05:32.795Z,5.90
2023-04-24T09:08:04.008Z,9.10
2023-04-24T09:10:31.957Z,7.18
2023-04-24T09:13:02.792Z,7.82
2023-04-24T09:15:31.386Z,7.70
2023-04-24T09:17:59.600Z,5.72
2023-04-24T09:20:27.609Z,8.02
2023-04-24T09:22:57.115Z,4.43
2023-04-24T09:25:33.296Z,4.32
2023-04-24T09:28:03.872Z,3.75
2023-04-24T09:30:32.764Z,5.03
2023-04-24T09:33:16.091Z,6.10
2023-04-24T09:35:45.053Z,9.88
2023-04-24T09:38:12.949Z,6.70
2023-04-24T09:40:42.401Z,4.43
2023-04-24T09:43:13.261Z,3.50
2023-04-24T09:45:41.866Z,5.70
2023-04-24T09:48:11.998Z,8.18
2023-04-24T09:50:40.144Z,4.90
2023-04-24T09:53:09.879Z,2.45
2023-04-24T09:55:49.417Z,3.80
2023-04-24T09:58:17.339Z,2.58
2023-04-24T10:00:47.765Z,4.97
2023-04-24T10:03:16.131Z,5.03
2023-04-24T10:05:44.737Z,4.60
2023-04-24T10:08:15.923Z,7.55
2023-04-24T10:10:46.983Z,3.90
2023-04-24T10:13:16.511Z,5.47
2023-04-24T10:15:44.674Z,4.10
2023-04-24T10:18:13.648Z,4.33
2023-04-24T10:20:42.738Z,3.08
2023-04-24T10:23:10.607Z,7.45
2023-04-24T10:25:38.730Z,7.22
2023-04-24T10:28:10.479Z,6.20
2023-04-24T10:30:39.260Z,5.17
2023-04-24T10:33:10.004Z,5.37
2023-04-24T10:35:42.645Z,4.68
2023-04-24T10:38:14.385Z,5.75
2023-04-24T10:40:42.703Z,6.30
2023-04-24T10:43:12.434Z,7.00
2023-04-24T10:45:41.319Z,4.38
2023-04-24T10:48:14.779Z,3.03
2023-04-24T10:50:47.760Z,4.20
2023-04-24T10:53:18.292Z,4.68
2023-04-24T10:55:48.648Z,2.77
2023-04-24T10:58:18.857Z,5.53
2023-04-24T11:00:57.091Z,4.55
2023-04-24T11:03:27.348Z,6.30
2023-04-24T11:05:58.735Z,4.80
2023-04-24T11:08:32.482Z,3.55
2023-04-24T11:11:03.502Z,7.05
2023-04-24T11:14:13.337Z,5.97
2023-04-24T11:16:46.545Z,6.15
2023-04-24T11:19:24.627Z,5.22
2023-04-24T11:21:58.455Z,6.30
2023-04-24T11:24:31.810Z,5.40
2023-04-24T11:27:02.648Z,7.97
2023-04-24T11:29:49.238Z,5.75
2023-04-24T11:32:27.346Z,4.40
2023-04-24T11:34:56.866Z,4.32
2023-04-24T11:37:26.056Z,5.65
2023-04-24T11:39:56.338Z,6.40
2023-04-24T11:42:26.473Z,4.15
2023-04-24T11:44:56.481Z,4.90
2023-04-24T11:47:31.967Z,4.85
2023-04-24T11:50:01.122Z,5.20
2023-04-24T11:52:30.088Z,5.82
2023-04-24T11:54:58.321Z,5.30
2023-04-24T11:57:29.921Z,9.82
2023-04-24T11:59:58.105Z,8.45
2023-04-24T12:02:27.143Z,5.90
2023-04-24T12:04:57.317Z,5.07
2023-04-24T12:07:26.442Z,10.50
2023-04-24T12:09:59.334Z,10.00
2023-04-24T12:12:28.820Z,9.70
2023-04-24T12:14:58.210Z,10.00
2023-04-24T12:17:29.299Z,9.88
2023-04-24T12:20:03.365Z,14.23
2023-04-24T12:22:45.748Z,8.00
2023-04-24T12:25:14.204Z,10.80
2023-04-24T12:27:42.133Z,8.45
2023-04-24T12:30:14.127Z,11.20
2023-04-24T12:32:46.019Z,11.55
2023-04-24T12:35:16.059Z,11.00
2023-04-24T12:37:47.402Z,11.30
2023-04-24T12:40:16.498Z,13.45
2023-04-24T12:42:46.383Z,12.18
2023-04-24T12:45:15.436Z,12.30
2023-04-24T12:47:44.554Z,15.43
2023-04-24T12:50:13.759Z,12.53
2023-04-24T12:52:43.740Z,12.50
2023-04-24T12:55:13.062Z,9.02
2023-04-24T12:57:41.909Z,9.35
2023-04-24T13:00:11.472Z,16.40
2023-04-24T13:02:39.867Z,10.82
2023-04-24T13:05:08.524Z,14.27
2023-04-24T13:07:36.493Z,14.75
2023-04-24T13:10:06.752Z,18.00
2023-04-24T13:12:34.778Z,17.13
2023-04-24T13:15:02.785Z,11.13
2023-04-24T13:17:30.744Z,14.07
2023-04-24T13:19:58.720Z,10.75
2023-04-24T13:22:26.986Z,12.63
2023-04-24T13:24:54.973Z,14.93
2023-04-24T13:27:24.342Z,14.20
2023-04-24T13:29:52.264Z,11.43
2023-04-24T13:32:20.580Z,12.82
2023-04-24T13:34:48.795Z,16.93
2023-04-24T13:37:16.831Z,11.75
2023-04-24T13:39:44.827Z,15.00
2023-04-24T13:42:13.685Z,15.40
2023-04-24T13:44:42.978Z,14.82
2023-04-24T13:47:10.981Z,11.60
2023-04-24T13:49:38.983Z,8.88
2023-04-24T13:52:06.971Z,10.10
2023-04-24T13:54:35.145Z,9.32
2023-04-24T13:57:03.906Z,9.02
2023-04-24T13:59:32.038Z,10.50
2023-04-24T14:02:01.642Z,11.57
2023-04-24T14:04:29.900Z,12.65
2023-04-24T14:06:58.061Z,12.88
2023-04-24T14:09:26.053Z,10.40
2023-04-24T14:11:54.587Z,11.15
2023-04-24T14:14:22.638Z,11.10
2023-04-24T14:16:50.667Z,16.23
2023-04-24T14:19:20.160Z,10.43
2023-04-24T14:21:48.137Z,13.90
2023-04-24T14:24:16.590Z,12.20
2023-04-24T14:26:44.595Z,12.07
2023-04-24T14:29:15.128Z,17.90
2023-04-24T14:31:43.786Z,14.38
2023-04-24T14:34:12.105Z,16.08
2023-04-24T14:36:41.471Z,14.37
2023-04-24T14:39:09.433Z,11.32
2023-04-24T14:41:38.241Z,16.17
2023-04-24T14:44:06.492Z,14.63
2023-04-24T14:46:34.431Z,15.98
2023-04-24T14:49:02.454Z,11.82
2023-04-24T14:51:31.335Z,12.73
2023-04-24T14:54:00.807Z,17.65
2023-04-24T14:56:28.828Z,12.20
2023-04-24T14:58:57.397Z,16.85
2023-04-24T15:01:26.062Z,17.00
2023-04-24T15:03:54.583Z,15.73
2023-04-24T15:06:23.031Z,14.27
2023-04-24T15:08:51.102Z,16.15
2023-04-24T15:11:21.217Z,17.00
2023-04-24T15:13:49.476Z,16.57
2023-04-24T15:16:17.716Z,13.27
2023-04-24T15:18:45.987Z,13.10
2023-04-24T15:21:14.225Z,13.85
2023-04-24T15:23:42.168Z,14.90
2023-04-24T15:26:10.107Z,16.20
2023-04-24T15:28:39.393Z,18.23
2023-04-24T15:31:07.405Z,14.43
2023-04-24T15:33:35.397Z,13.98
2023-04-24T15:36:03.361Z,14.43
2023-04-24T15:38:31.590Z,15.52
2023-04-24T15:40:59.591Z,16.42
2023-04-24T15:43:27.616Z,10.65
2023-04-24T15:45:57.677Z,12.30
2023-04-24T15:48:25.723Z,16.85
2023-04-24T15:50:53.689Z,14.23
2023-04-24T15:53:23.133Z,13.27
2023-04-24T15:55:51.442Z,14.25
2023-04-24T15:58:20.266Z,12.43
2023-04-24T16:00:48.613Z,11.13
2023-04-24T16:03:19.888Z,14.23
2023-04-24T16:05:47.925Z,22.13
2023-04-24T16:08:15.891Z,15.30
2023-04-24T16:10:44.233Z,13.00
2023-04-24T16:13:12.252Z,15.05
2023-04-24T16:15:41.338Z,12.98
2023-04-24T16:18:09.458Z,15.90
2023-04-24T16:20:38.815Z,16.75
2023-04-24T16:23:06.701Z,11.15
2023-04-24T16:25:34.715Z,13.00
2023-04-24T16:28:03.123Z,12.37
2023-04-24T16:30:31.116Z,11.40
2023-04-24T16:32:59.154Z,14.15
2023-04-24T16:35:27.235Z,17.27
2023-04-24T16:37:56.536Z,13.13
2023-04-24T16:40:24.511Z,10.65
2023-04-24T16:42:52.853Z,14.50
2023-04-24T16:45:20.925Z,17.73
2023-04-24T16:47:49.012Z,14.57
2023-04-24T16:50:16.900Z,17.33
2023-04-24T16:52:44.841Z,17.60
2023-04-24T16:55:14.128Z,20.42
2023-04-24T16:57:42.032Z,18.35
2023-04-24T17:00:11.184Z,19.70
2023-04-24T17:02:39.372Z,15.70
2023-04-24T17:05:08.087Z,21.80
2023-04-24T17:07:36.153Z,19.52
2023-04-24T17:10:04.792Z,16.50
2023-04-24T17:12:34.035Z,18.95
2023-04-24T17:15:02.044Z,11.48
2023-04-24T17:17:29.953Z,17.98
2023-04-24T17:19:59.824Z,17.67
2023-04-24T17:22:29.387Z,13.25
2023-04-24T17:24:57.381Z,15.27
2023-04-24T17:27:26.134Z,15.60
2023-04-24T17:29:55.547Z,12.75
2023-04-24T17:32:23.482Z,13.50
2023-04-24T17:34:51.507Z,15.35
2023-04-24T17:37:23.113Z,15.68
2023-04-24T17:39:51.119Z,20.40
2023-04-24T17:42:19.101Z,17.83
2023-04-24T17:44:47.399Z,13.88
2023-04-24T17:47:16.748Z,13.07
2023-04-24T17:49:44.684Z,15.73
2023-04-24T17:52:13.726Z,18.85
2023-04-24T17:54:41.722Z,15.88
2023-04-24T17:57:09.931Z,13.52
2023-04-24T17:59:37.979Z,18.77
2023-04-24T18:02:05.909Z,16.77
2023-04-24T18:04:35.297Z,20.07
2023-04-24T18:07:03.363Z,14.15
2023-04-24T18:09:31.846Z,13.00
2023-04-24T18:11:59.815Z,14.77
2023-04-24T18:14:28.510Z,13.40
2023-04-24T18:16:58.101Z,12.77
2023-04-24T18:19:26.346Z,10.50
2023-04-24T18:21:55.700Z,14.43
2023-04-24T18:24:23.734Z,9.80
2023-04-24T18:27:09.678Z,11.86
2023-04-24T18:29:37.732Z,11.00
2023-04-24T18:32:06.176Z,9.60
2023-04-24T18:34:34.181Z,14.63
2023-04-24T18:37:03.481Z,15.63
2023-04-24T18:39:31.326Z,10.90
2023-04-24T18:42:00.151Z,11.27
2023-04-24T18:44:28.174Z,10.48
2023-04-24T18:46:56.171Z,10.65
2023-04-24T18:49:24.142Z,10.60
2023-04-24T18:51:54.582Z,7.38
2023-04-24T18:54:24.152Z,7.65
2023-04-24T18:56:52.449Z,8.93
2023-04-24T18:59:20.546Z,8.07
2023-04-24T19:01:48.682Z,8.35
2023-04-24T19:04:16.846Z,6.13
2023-04-24T19:06:44.773Z,3.83
2023-04-24T19:09:12.741Z,4.68
2023-04-24T19:11:43.472Z,3.50
2023-04-24T19:14:11.460Z,4.90
2023-04-24T19:16:39.410Z,3.47
2023-04-24T19:19:07.375Z,3.10
2023-04-24T19:21:35.856Z,1.95
2023-04-24T19:24:04.041Z,3.78
2023-04-24T19:26:32.111Z,2.40
2023-04-24T19:29:01.424Z,3.15
2023-04-24T19:31:29.811Z,3.65
2023-04-24T19:33:57.717Z,2.58
2023-04-24T19:36:25.759Z,3.63
2023-04-24T19:38:54.083Z,4.13
2023-04-24T19:41:22.062Z,7.53
2023-04-24T19:43:50.721Z,4.68
2023-04-24T19:46:20.408Z,6.78
2023-04-24T19:48:48.641Z,7.70
2023-04-24T19:51:16.800Z,7.97
2023-04-24T19:53:45.003Z,5.90
2023-04-24T19:56:13.252Z,4.82
2023-04-24T19:58:41.343Z,5.10
2023-04-24T20:01:09.280Z,9.70
2023-04-24T20:03:38.798Z,6.53
2023-04-24T20:06:06.985Z,5.25
2023-04-24T20:08:38.787Z,4.72
2023-04-24T20:11:07.050Z,10.10
2023-04-24T20:13:35.135Z,6.80
2023-04-24T20:16:04.421Z,7.78
2023-04-24T20:18:32.522Z,7.47
2023-04-24T20:21:01.905Z,7.85
2023-04-24T20:23:29.853Z,7.28
2023-04-24T20:25:58.972Z,9.82
2023-04-24T20:28:27.164Z,7.38
2023-04-24T20:30:55.294Z,10.02
2023-04-24T20:33:23.625Z,7.15
2023-04-24T20:35:52.448Z,5.83
2023-04-24T20:38:22.546Z,6.88
2023-04-24T20:40:57.860Z,8.32
2023-04-24T20:43:28.914Z,7.18
2023-04-24T20:45:57.787Z,6.03
2023-04-24T20:48:26.249Z,5.13
2023-04-24T20:50:54.647Z,8.75
2023-04-24T20:53:24.035Z,7.45
2023-04-24T20:55:52.204Z,6.85
2023-04-24T20:58:21.067Z,9.10
2023-04-24T21:00:49.249Z,7.50
2023-04-24T21:03:17.754Z,5.90
2023-04-24T21:05:45.943Z,9.18
2023-04-24T21:08:14.072Z,7.20
2023-04-24T21:10:43.408Z,6.10
2023-04-24T21:13:11.353Z,9.73
2023-04-24T21:15:39.635Z,6.63
2023-04-24T21:18:07.835Z,10.90
2023-04-24T21:20:36.055Z,6.55
2023-04-24T21:23:03.995Z,7.53
2023-04-24T21:25:32.221Z,9.50
2023-04-24T21:28:02.112Z,10.25
2023-04-24T21:30:31.120Z,6.63
2023-04-24T21:32:59.122Z,9.18
2023-04-24T21:35:27.138Z,7.97
2023-04-24T21:37:55.071Z,11.40
2023-04-24T21:40:23.115Z,8.65
2023-04-24T21:42:51.827Z,13.07
2023-04-24T21:45:21.306Z,11.50
2023-04-24T21:47:49.218Z,10.93
2023-04-24T21:50:17.245Z,11.63
2023-04-24T21:52:45.164Z,14.93
2023-04-24T21:55:13.188Z,11.65
2023-04-24T21:57:41.375Z,9.52
2023-04-24T22:00:11.369Z,11.18
2023-04-24T22:02:42.980Z,11.65
2023-04-24T22:05:15.558Z,13.13
2023-04-24T22:07:46.673Z,12.25
2023-04-24T22:10:17.452Z,11.45
2023-04-24T22:12:45.540Z,14.50
2023-04-24T22:15:13.526Z,11.80
2023-04-24T22:17:43.496Z,9.68
2023-04-24T22:20:12.142Z,9.35
2023-04-24T22:22:40.130Z,10.05
2023-04-24T22:25:08.932Z,14.02
2023-04-24T22:27:36.867Z,11.60
2023-04-24T22:30:05.549Z,15.87
2023-04-24T22:32:33.526Z,15.20
2023-04-24T22:35:03.078Z,12.63
2023-04-24T22:37:31.350Z,16.77
2023-04-24T22:39:59.940Z,10.35
2023-04-24T22:42:28.499Z,14.18
2023-04-24T22:44:56.489Z,13.23
2023-04-24T22:47:24.503Z,11.63
2023-04-24T22:49:53.801Z,10.80
2023-04-24T22:52:23.163Z,14.18
2023-04-24T22:54:52.143Z,8.40
2023-04-24T22:57:20.148Z,15.85
2023-04-24T22:59:48.318Z,12.45
2023-04-24T23:02:16.958Z,12.37
2023-04-24T23:04:45.026Z,8.80
2023-04-24T23:07:12.929Z,14.30
2023-04-24T23:09:42.150Z,17.23
2023-04-24T23:12:10.083Z,9.88
2023-04-24T23:14:37.970Z,17.55
2023-04-24T23:17:05.875Z,17.92
2023-04-24T23:19:33.874Z,13.23
2023-04-24T23:22:01.912Z,14.20
2023-04-24T23:24:29.834Z,10.43
2023-04-24T23:26:59.233Z,14.93
2023-04-24T23:29:27.151Z,15.25
2023-04-24T23:31:55.351Z,14.55
2023-04-24T23:34:23.343Z,12.13
2023-04-24T23:36:52.419Z,12.73
2023-04-24T23:39:20.439Z,14.75
2023-04-24T23:41:49.440Z,9.77
2023-04-24T23:44:18.851Z,12.43
2023-04-24T23:46:46.775Z,14.57
2023-04-24T23:49:14.782Z,11.70
2023-04-24T23:51:42.820Z,19.02
2023-04-24T23:54:11.185Z,16.45
2023-04-24T23:56:39.114Z,17.23
2023-04-24T23:59:07.061Z,15.07
